createdAt,value
2022-12-25T00:01:14.185Z,51.62
2022-12-25T00:03:44.441Z,51.81
2022-12-25T00:06:12.408Z,51.45
2022-12-25T00:08:41.244Z,51.62
2022-12-25T00:11:12.543Z,51.63
2022-12-25T00:13:40.641Z,51.17
2022-12-25T00:16:11.531Z,52.25
2022-12-25T00:18:39.442Z,52.18
2022-12-25T00:21:08.463Z,51.48
2022-12-25T00:23:36.601Z,51.74
2022-12-25T00:26:06.192Z,51.59
2022-12-25T00:28:33.401Z,51.24
2022-12-25T00:31:05.343Z,51.73
2022-12-25T00:33:35.698Z,52.06
2022-12-25T00:36:03.763Z,52.25
2022-12-25T00:38:31.001Z,52.27
2022-12-25T00:40:58.362Z,52.13
2022-12-25T00:43:25.502Z,52.42
2022-12-25T00:45:57.713Z,51.85
2022-12-25T00:48:25.525Z,51.59
2022-12-25T00:50:59.525Z,51.40
2022-12-25T00:53:28.165Z,51.29
2022-12-25T00:55:57.711Z,51.11
2022-12-25T00:58:27.022Z,50.93
2022-12-25T01:00:54.610Z,51.11
2022-12-25T01:03:21.870Z,50.86
2022-12-25T01:05:58.017Z,50.42
2022-12-25T01:08:25.758Z,50.81
2022-12-25T01:10:56.406Z,51.09
2022-12-25T01:13:23.996Z,50.99
2022-12-25T01:15:51.871Z,51.33
2022-12-25T01:18:18.993Z,50.79
2022-12-25T01:20:46.636Z,51.21
2022-12-25T01:23:15.826Z,51.38
2022-12-25T01:25:43.323Z,51.24
2022-12-25T01:28:10.623Z,51.15
2022-12-25T01:30:37.852Z,51.33
2022-12-25T01:33:05.099Z,51.25
2022-12-25T01:35:32.173Z,51.32
2022-12-25T01:37:59.397Z,51.41
2022-12-25T01:40:28.056Z,51.31
2022-12-25T01:42:55.234Z,51.24
2022-12-25T01:45:42.529Z,51.45
2022-12-25T01:48:17.732Z,51.30
2022-12-25T01:50:48.673Z,51.41
2022-12-25T01:53:16.575Z,51.53
2022-12-25T01:55:50.453Z,51.56
2022-12-25T01:58:18.974Z,51.38
2022-12-25T02:00:46.858Z,51.30
2022-12-25T02:03:14.706Z,51.54
2022-12-25T02:05:42.220Z,51.32
2022-12-25T02:08:12.738Z,51.32
2022-12-25T02:10:39.863Z,51.26
2022-12-25T02:13:09.352Z,51.31
2022-12-25T02:15:49.219Z,51.33
2022-12-25T02:18:29.773Z,51.00
2022-12-25T02:21:30.397Z,51.10
2022-12-25T02:24:32.197Z,51.32
2022-12-25T02:27:09.853Z,51.36
2022-12-25T02:29:52.433Z,51.29
2022-12-25T02:32:28.031Z,51.42
2022-12-25T02:35:03.413Z,59.27
2022-12-25T02:37:40.654Z,55.97
2022-12-25T02:40:16.267Z,55.87
2022-12-25T02:42:51.794Z,57.21
2022-12-25T02:45:29.015Z,55.39
2022-12-25T02:47:57.917Z,54.12
2022-12-25T02:50:26.714Z,54.42
2022-12-25T02:52:59.734Z,52.66
2022-12-25T02:55:33.693Z,52.03
2022-12-25T02:58:06.360Z,51.41
2022-12-25T03:00:40.690Z,51.33
2022-12-25T03:03:12.129Z,50.39
2022-12-25T03:05:42.431Z,49.87
2022-12-25T03:08:15.854Z,49.70
2022-12-25T03:10:50.250Z,49.48
2022-12-25T03:13:23.059Z,49.45
2022-12-25T03:15:53.176Z,48.50
2022-12-25T03:18:26.910Z,47.32
2022-12-25T03:20:55.075Z,48.05
2022-12-25T03:23:28.409Z,48.38
2022-12-25T03:25:55.737Z,48.47
2022-12-25T03:28:22.877Z,48.56
2022-12-25T03:31:03.052Z,47.37
2022-12-25T03:33:45.868Z,48.19
2022-12-25T03:36:24.123Z,47.35
2022-12-25T03:39:02.190Z,47.02
2022-12-25T03:41:41.491Z,46.95
2022-12-25T03:44:19.898Z,47.21
2022-12-25T03:46:57.131Z,47.22
2022-12-25T03:49:31.767Z,46.89
2022-12-25T03:52:04.754Z,47.04
2022-12-25T03:54:37.848Z,46.51
2022-12-25T03:57:05.348Z,46.93
2022-12-25T03:59:32.690Z,47.13
2022-12-25T04:02:01.337Z,47.10
2022-12-25T04:04:28.667Z,46.31
2022-12-25T04:06:55.732Z,45.92
2022-12-25T04:09:22.951Z,46.12
2022-12-25T04:11:50.040Z,46.76
2022-12-25T04:14:17.188Z,46.40
2022-12-25T04:16:44.469Z,46.97
2022-12-25T04:19:13.230Z,46.57
2022-12-25T04:21:40.893Z,46.72
2022-12-25T04:24:09.545Z,46.46
2022-12-25T04:26:36.651Z,46.02
2022-12-25T04:29:03.817Z,45.92
2022-12-25T04:31:30.909Z,45.92
2022-12-25T04:33:58.054Z,45.69
2022-12-25T04:36:26.612Z,46.46
2022-12-25T04:38:53.692Z,46.36
2022-12-25T04:41:20.931Z,46.52
2022-12-25T04:43:48.059Z,46.30
2022-12-25T04:46:15.117Z,46.51
2022-12-25T04:48:42.378Z,46.18
2022-12-25T04:51:15.566Z,46.32
2022-12-25T04:53:45.399Z,46.25
2022-12-25T04:56:13.535Z,46.82
2022-12-25T04:58:41.320Z,46.01
2022-12-25T05:01:09.092Z,46.76
2022-12-25T05:03:36.421Z,45.98
2022-12-25T05:06:04.579Z,45.02
2022-12-25T05:08:33.811Z,46.13
2022-12-25T05:11:06.304Z,45.96
2022-12-25T05:13:33.412Z,45.70
2022-12-25T05:16:00.665Z,46.02
2022-12-25T05:18:27.851Z,45.22
2022-12-25T05:20:55.984Z,45.55
2022-12-25T05:23:23.286Z,45.27
2022-12-25T05:25:50.472Z,45.81
2022-12-25T05:28:19.060Z,45.60
2022-12-25T05:30:46.152Z,45.58
2022-12-25T05:33:13.792Z,46.19
2022-12-25T05:35:40.958Z,46.47
2022-12-25T05:38:08.967Z,45.99
2022-12-25T05:40:39.295Z,45.60
2022-12-25T05:43:06.491Z,45.71
2022-12-25T05:45:35.492Z,46.04
2022-12-25T05:48:02.712Z,45.72
2022-12-25T05:50:30.171Z,45.40
2022-12-25T05:53:00.201Z,46.23
2022-12-25T05:55:29.952Z,45.92
2022-12-25T05:57:57.752Z,46.14
2022-12-25T06:00:24.790Z,45.64
2022-12-25T06:02:53.652Z,46.08
2022-12-25T06:05:20.870Z,45.96
2022-12-25T06:07:48.031Z,46.15
2022-12-25T06:10:15.433Z,44.95
2022-12-25T06:12:42.631Z,45.96
2022-12-25T06:15:10.296Z,45.68
2022-12-25T06:17:37.471Z,45.71
2022-12-25T06:20:07.915Z,45.04
2022-12-25T06:22:35.175Z,45.42
2022-12-25T06:25:02.392Z,45.04
2022-12-25T06:27:29.579Z,44.98
2022-12-25T06:29:57.043Z,45.08
2022-12-25T06:32:24.191Z,45.81
2022-12-25T06:34:51.379Z,45.02
2022-12-25T06:37:19.904Z,45.07
2022-12-25T06:39:47.299Z,44.83
2022-12-25T06:42:14.478Z,45.08
2022-12-25T06:44:41.651Z,44.82
2022-12-25T06:47:08.887Z,45.27
2022-12-25T06:49:36.116Z,45.52
2022-12-25T06:52:03.526Z,45.25
2022-12-25T06:54:32.037Z,45.77
2022-12-25T06:56:59.206Z,45.45
2022-12-25T06:59:26.406Z,45.81
2022-12-25T07:01:56.038Z,45.62
2022-12-25T07:04:29.418Z,45.53
2022-12-25T07:06:56.518Z,45.32
2022-12-25T07:09:23.568Z,45.51
2022-12-25T07:11:52.157Z,45.54
2022-12-25T07:14:24.190Z,46.26
2022-12-25T07:16:52.020Z,45.87
2022-12-25T07:19:19.243Z,45.84
2022-12-25T07:21:46.718Z,46.03
2022-12-25T07:24:18.615Z,45.46
2022-12-25T07:26:45.774Z,45.43
2022-12-25T07:29:14.480Z,46.27
2022-12-25T07:31:41.674Z,46.05
2022-12-25T07:34:09.421Z,46.27
2022-12-25T07:36:36.579Z,46.24
2022-12-25T07:39:04.342Z,45.90
2022-12-25T07:41:31.527Z,46.00
2022-12-25T07:43:58.699Z,46.24
2022-12-25T07:46:27.317Z,45.48
2022-12-25T07:48:54.818Z,46.43
2022-12-25T07:51:21.986Z,45.31
2022-12-25T07:53:49.372Z,46.28
2022-12-25T07:56:19.378Z,46.77
2022-12-25T07:58:47.243Z,46.39
2022-12-25T08:01:16.974Z,46.71
2022-12-25T08:03:49.697Z,46.38
2022-12-25T08:06:17.362Z,45.61
2022-12-25T08:08:44.517Z,46.24
2022-12-25T08:11:11.757Z,46.13
2022-12-25T08:13:38.990Z,45.49
2022-12-25T08:16:08.994Z,45.58
2022-12-25T08:18:37.909Z,45.74
2022-12-25T08:21:08.975Z,45.45
2022-12-25T08:23:38.519Z,45.72
2022-12-25T08:26:07.981Z,44.47
2022-12-25T08:28:35.839Z,45.93
2022-12-25T08:31:08.353Z,45.28
2022-12-25T08:33:35.963Z,46.08
2022-12-25T08:36:04.720Z,45.86
2022-12-25T08:38:33.480Z,45.72
2022-12-25T08:41:00.666Z,45.83
2022-12-25T08:43:27.846Z,45.87
2022-12-25T08:45:55.180Z,45.61
2022-12-25T08:48:22.431Z,45.69
2022-12-25T08:50:51.857Z,45.39
2022-12-25T08:53:19.438Z,46.07
2022-12-25T08:55:48.204Z,45.75
2022-12-25T08:58:15.799Z,46.00
2022-12-25T09:00:43.118Z,46.04
2022-12-25T09:03:10.362Z,46.34
2022-12-25T09:05:38.351Z,45.78
2022-12-25T09:08:05.675Z,45.45
2022-12-25T09:10:36.411Z,45.42
2022-12-25T09:13:05.681Z,45.85
2022-12-25T09:15:33.270Z,46.78
2022-12-25T09:18:00.446Z,46.21
2022-12-25T09:20:27.623Z,45.36
2022-12-25T09:22:54.967Z,46.16
2022-12-25T09:25:22.159Z,45.82
2022-12-25T09:27:49.644Z,45.90
2022-12-25T09:30:18.599Z,45.56
2022-12-25T09:32:45.744Z,45.92
2022-12-25T09:35:13.459Z,45.29
2022-12-25T09:37:40.604Z,45.88
2022-12-25T09:40:10.436Z,45.80
2022-12-25T09:42:37.619Z,45.53
2022-12-25T09:45:10.900Z,45.95
2022-12-25T09:47:44.799Z,46.02
2022-12-25T09:50:17.241Z,45.77
2022-12-25T09:52:51.502Z,45.46
2022-12-25T09:55:23.419Z,45.99
2022-12-25T09:57:54.678Z,45.92
2022-12-25T10:00:24.256Z,45.08
2022-12-25T10:03:18.538Z,46.10
2022-12-25T10:06:06.563Z,45.70
2022-12-25T10:08:58.958Z,45.50
2022-12-25T10:11:46.958Z,45.37
2022-12-25T10:14:30.762Z,45.89
2022-12-25T10:17:14.907Z,45.29
2022-12-25T10:19:52.776Z,45.54
2022-12-25T10:22:27.518Z,46.07
2022-12-25T10:24:59.342Z,44.49
2022-12-25T10:27:33.612Z,46.40
2022-12-25T10:30:05.827Z,46.18
2022-12-25T10:32:33.904Z,46.66
2022-12-25T10:35:02.499Z,46.08
2022-12-25T10:37:30.584Z,46.13
2022-12-25T10:39:57.763Z,46.01
2022-12-25T10:42:39.147Z,46.34
2022-12-25T10:45:08.803Z,46.86
2022-12-25T10:47:41.875Z,46.45
2022-12-25T10:50:19.540Z,46.54
2022-12-25T10:52:55.992Z,46.43
2022-12-25T10:55:28.419Z,46.38
2022-12-25T10:57:56.981Z,46.35
2022-12-25T11:00:27.942Z,46.45
2022-12-25T11:02:55.919Z,46.07
2022-12-25T11:05:29.077Z,46.13
2022-12-25T11:07:58.138Z,46.50
2022-12-25T11:10:28.847Z,46.83
2022-12-25T11:12:57.578Z,45.94
2022-12-25T11:15:40.551Z,46.99
2022-12-25T11:18:21.109Z,47.41
2022-12-25T11:20:52.401Z,47.08
2022-12-25T11:23:22.886Z,46.37
2022-12-25T11:25:57.918Z,46.67
2022-12-25T11:28:26.405Z,46.30
2022-12-25T11:31:00.878Z,45.69
2022-12-25T11:33:35.397Z,46.23
2022-12-25T11:36:15.858Z,46.06
2022-12-25T11:38:43.019Z,46.04
2022-12-25T11:41:13.277Z,45.94
2022-12-25T11:43:49.645Z,45.73
2022-12-25T11:46:24.305Z,45.77
2022-12-25T11:48:57.567Z,44.42
2022-12-25T11:51:33.590Z,46.28
2022-12-25T11:54:08.036Z,45.95
2022-12-25T11:56:38.239Z,46.00
2022-12-25T11:59:18.282Z,46.22
2022-12-25T12:01:52.291Z,44.77
2022-12-25T12:04:30.018Z,45.85
2022-12-25T12:07:08.089Z,45.72
2022-12-25T12:09:48.556Z,45.76
2022-12-25T12:12:23.977Z,46.83
2022-12-25T12:15:00.629Z,45.95
2022-12-25T12:17:27.878Z,46.87
2022-12-25T12:19:55.098Z,46.91
2022-12-25T12:22:27.706Z,47.25
2022-12-25T12:25:00.383Z,47.68
2022-12-25T12:27:35.476Z,47.02
2022-12-25T12:30:03.476Z,47.42
2022-12-25T12:32:39.539Z,47.46
2022-12-25T12:35:16.108Z,48.11
2022-12-25T12:37:49.744Z,48.30
2022-12-25T12:40:33.361Z,47.48
2022-12-25T12:43:01.839Z,47.29
2022-12-25T12:45:33.767Z,47.92
2022-12-25T12:48:01.058Z,48.35
2022-12-25T12:50:32.793Z,48.73
2022-12-25T12:53:17.697Z,48.33
2022-12-25T12:55:45.080Z,48.40
2022-12-25T12:58:27.767Z,47.98
2022-12-25T13:01:08.969Z,48.06
2022-12-25T13:04:04.420Z,48.22
2022-12-25T13:06:40.946Z,48.97
2022-12-25T13:09:27.558Z,48.48
2022-12-25T13:11:55.117Z,48.38
2022-12-25T13:14:24.457Z,48.01
2022-12-25T13:16:54.522Z,47.57
2022-12-25T13:19:23.710Z,48.64
2022-12-25T13:21:55.779Z,48.40
2022-12-25T13:24:26.626Z,48.31
2022-12-25T13:26:54.903Z,48.29
2022-12-25T13:29:34.058Z,49.00
2022-12-25T13:32:04.361Z,48.33
2022-12-25T13:34:35.958Z,48.02
2022-12-25T13:37:09.185Z,48.67
2022-12-25T13:39:49.478Z,48.43
2022-12-25T13:42:21.521Z,47.85
2022-12-25T13:44:53.666Z,48.36
2022-12-25T13:47:26.925Z,48.00
2022-12-25T13:49:57.263Z,48.25
2022-12-25T13:52:32.277Z,47.38
2022-12-25T13:55:04.226Z,47.80
2022-12-25T13:57:37.226Z,47.88
2022-12-25T14:00:08.416Z,48.12
2022-12-25T14:02:38.375Z,48.06
2022-12-25T14:05:24.236Z,48.10
2022-12-25T14:07:52.166Z,48.45
2022-12-25T14:10:23.141Z,48.63
2022-12-25T14:12:51.645Z,48.07
2022-12-25T14:15:22.530Z,48.55
2022-12-25T14:17:51.921Z,48.97
2022-12-25T14:20:29.007Z,47.98
2022-12-25T14:22:59.868Z,48.50
2022-12-25T14:25:34.276Z,48.65
2022-12-25T14:28:08.441Z,48.08
2022-12-25T14:30:36.586Z,48.82
2022-12-25T14:33:03.959Z,48.66
2022-12-25T14:35:31.641Z,48.56
2022-12-25T14:38:00.709Z,48.45
2022-12-25T14:40:31.680Z,48.45
2022-12-25T14:43:01.084Z,48.56
2022-12-25T14:45:32.439Z,48.96
2022-12-25T14:48:02.360Z,48.99
2022-12-25T14:50:35.185Z,48.90
2022-12-25T14:53:03.279Z,49.39
2022-12-25T14:55:32.296Z,48.77
2022-12-25T14:58:04.946Z,49.62
2022-12-25T15:00:36.979Z,49.21
2022-12-25T15:03:15.857Z,49.26
2022-12-25T15:05:43.603Z,49.07
2022-12-25T15:08:25.351Z,48.96
2022-12-25T15:11:01.177Z,48.94
2022-12-25T15:13:30.687Z,48.96
2022-12-25T15:16:02.880Z,49.27
2022-12-25T15:18:37.741Z,49.25
2022-12-25T15:21:05.369Z,49.04
2022-12-25T15:23:32.735Z,49.09
2022-12-25T15:26:01.378Z,49.23
2022-12-25T15:28:28.513Z,49.26
2022-12-25T15:30:56.329Z,49.31
2022-12-25T15:33:23.668Z,49.54
2022-12-25T15:35:50.861Z,49.36
2022-12-25T15:38:18.233Z,49.46
2022-12-25T15:40:47.140Z,49.71
2022-12-25T15:43:39.269Z,49.65
2022-12-25T15:46:02.930Z,49.73
2022-12-25T15:48:30.223Z,49.86
2022-12-25T15:50:57.850Z,50.04
2022-12-25T15:53:25.260Z,50.05
2022-12-25T15:55:52.900Z,49.69
2022-12-25T15:58:21.466Z,49.69
2022-12-25T16:00:48.622Z,49.78
2022-12-25T16:03:15.891Z,49.88
2022-12-25T16:05:43.283Z,49.73
2022-12-25T16:08:10.399Z,49.70
2022-12-25T16:10:39.177Z,49.77
2022-12-25T16:13:07.723Z,49.95
2022-12-25T16:15:36.520Z,49.89
2022-12-25T16:18:04.092Z,50.15
2022-12-25T16:20:31.587Z,50.08
2022-12-25T16:22:58.758Z,50.08
2022-12-25T16:25:28.944Z,50.13
2022-12-25T16:27:56.029Z,50.42
2022-12-25T16:30:23.107Z,50.78
2022-12-25T16:32:51.735Z,50.70
2022-12-25T16:35:19.080Z,50.60
2022-12-25T16:37:46.487Z,50.70
2022-12-25T16:40:14.082Z,50.61
2022-12-25T16:42:41.218Z,50.67
2022-12-25T16:45:09.339Z,50.51
2022-12-25T16:47:42.199Z,50.59
2022-12-25T16:50:11.645Z,50.68
2022-12-25T16:52:38.901Z,51.02
2022-12-25T16:55:06.642Z,50.62
2022-12-25T16:57:34.076Z,50.81
2022-12-25T17:00:01.360Z,50.78
2022-12-25T17:02:28.524Z,50.55
2022-12-25T17:04:56.066Z,50.65
2022-12-25T17:07:24.763Z,50.51
2022-12-25T17:09:51.904Z,50.68
2022-12-25T17:12:19.046Z,50.24
2022-12-25T17:14:46.303Z,50.01
2022-12-25T17:17:13.518Z,49.94
2022-12-25T17:19:41.631Z,50.03
2022-12-25T17:22:08.826Z,49.94
2022-12-25T17:24:38.160Z,49.88
2022-12-25T17:27:05.439Z,50.10
2022-12-25T17:29:32.607Z,50.06
2022-12-25T17:31:59.846Z,49.95
2022-12-25T17:34:27.659Z,49.78
2022-12-25T17:36:54.799Z,49.35
2022-12-25T17:39:21.881Z,49.48
2022-12-25T17:41:51.510Z,49.36
2022-12-25T17:44:19.122Z,49.10
2022-12-25T17:46:46.273Z,49.12
2022-12-25T17:49:16.567Z,49.43
2022-12-25T17:51:43.819Z,49.17
2022-12-25T17:54:11.198Z,49.07
2022-12-25T17:56:38.420Z,49.10
2022-12-25T17:59:07.451Z,49.10
2022-12-25T18:01:36.970Z,49.33
2022-12-25T18:04:05.302Z,49.60
2022-12-25T18:06:35.813Z,49.25
2022-12-25T18:09:04.958Z,49.41
2022-12-25T18:11:32.146Z,49.56
2022-12-25T18:14:02.734Z,49.30
2022-12-25T18:16:34.593Z,49.35
2022-12-25T18:19:02.223Z,49.18
2022-12-25T18:21:30.087Z,49.40
2022-12-25T18:23:57.657Z,49.48
2022-12-25T18:26:25.116Z,49.21
2022-12-25T18:28:52.405Z,49.39
2022-12-25T18:31:27.306Z,49.46
2022-12-25T18:33:57.442Z,48.95
2022-12-25T18:36:27.596Z,49.17
2022-12-25T18:38:57.668Z,49.43
2022-12-25T18:41:26.182Z,49.40
2022-12-25T18:43:55.668Z,49.12
2022-12-25T18:46:24.947Z,48.95
2022-12-25T18:48:53.137Z,48.97
2022-12-25T18:51:21.968Z,49.00
2022-12-25T18:53:49.215Z,48.82
2022-12-25T18:56:18.160Z,48.14
2022-12-25T18:58:46.719Z,48.10
2022-12-25T19:01:16.142Z,48.27
2022-12-25T19:03:45.203Z,48.06
2022-12-25T19:06:17.404Z,48.06
2022-12-25T19:08:46.581Z,47.87
2022-12-25T19:11:13.935Z,47.39
2022-12-25T19:13:41.087Z,47.74
2022-12-25T19:16:08.321Z,47.81
2022-12-25T19:18:35.495Z,48.03
2022-12-25T19:21:04.245Z,48.31
2022-12-25T19:23:32.045Z,48.66
2022-12-25T19:26:00.983Z,48.82
2022-12-25T19:28:28.160Z,48.80
2022-12-25T19:30:58.700Z,48.86
2022-12-25T19:33:26.080Z,48.79
2022-12-25T19:35:53.386Z,49.03
2022-12-25T19:38:20.585Z,49.08
2022-12-25T19:40:47.841Z,49.25
2022-12-25T19:43:16.465Z,49.14
2022-12-25T19:45:43.741Z,48.93
2022-12-25T19:48:11.301Z,48.96
2022-12-25T19:50:39.240Z,48.97
2022-12-25T19:53:06.388Z,49.06
2022-12-25T19:55:33.761Z,48.88
2022-12-25T19:58:01.312Z,49.20
2022-12-25T20:00:29.964Z,49.34
2022-12-25T20:02:57.412Z,49.44
2022-12-25T20:05:25.047Z,49.50
2022-12-25T20:07:52.219Z,49.28
2022-12-25T20:10:19.468Z,49.26
2022-12-25T20:12:46.942Z,49.84
2022-12-25T20:15:14.163Z,49.88
2022-12-25T20:17:42.961Z,49.63
2022-12-25T20:20:11.420Z,49.58
2022-12-25T20:22:38.659Z,49.20
2022-12-25T20:25:07.283Z,49.23
2022-12-25T20:27:34.726Z,48.81
2022-12-25T20:30:01.883Z,48.71
2022-12-25T20:32:29.760Z,48.81
2022-12-25T20:34:58.381Z,48.36
2022-12-25T20:37:25.559Z,48.60
2022-12-25T20:39:53.343Z,48.81
2022-12-25T20:42:21.561Z,48.63
2022-12-25T20:44:48.990Z,48.79
2022-12-25T20:47:16.419Z,48.71
2022-12-25T20:49:43.618Z,49.03
2022-12-25T20:52:12.220Z,49.23
2022-12-25T20:54:39.514Z,48.96
2022-12-25T20:57:07.380Z,48.98
2022-12-25T20:59:37.784Z,49.11
2022-12-25T21:02:06.273Z,49.07
2022-12-25T21:04:35.575Z,49.05
2022-12-25T21:07:02.799Z,49.40
2022-12-25T21:09:31.890Z,49.74
2022-12-25T21:11:59.241Z,49.33
2022-12-25T21:14:26.460Z,49.54
2022-12-25T21:16:53.681Z,49.20
2022-12-25T21:19:21.039Z,49.32
2022-12-25T21:21:49.779Z,49.05
2022-12-25T21:24:17.300Z,49.63
2022-12-25T21:26:48.194Z,49.57
2022-12-25T21:29:17.439Z,49.08
2022-12-25T21:31:44.759Z,48.74
2022-12-25T21:34:11.942Z,48.41
2022-12-25T21:36:39.121Z,48.87
2022-12-25T21:39:08.718Z,49.06
2022-12-25T21:41:38.807Z,49.28
2022-12-25T21:44:08.548Z,49.11
2022-12-25T21:46:35.841Z,49.11
2022-12-25T21:49:03.079Z,48.90
2022-12-25T21:51:32.384Z,49.57
2022-12-25T21:54:00.100Z,49.12
2022-12-25T21:56:29.379Z,49.20
2022-12-25T21:58:59.079Z,49.63
2022-12-25T22:01:28.383Z,48.90
2022-12-25T22:03:56.525Z,49.17
2022-12-25T22:06:24.105Z,49.61
2022-12-25T22:08:51.293Z,49.70
2022-12-25T22:11:18.499Z,49.45
2022-12-25T22:13:45.638Z,49.37
2022-12-25T22:16:12.899Z,49.75
2022-12-25T22:18:41.477Z,49.76
2022-12-25T22:21:08.723Z,49.56
2022-12-25T22:23:35.839Z,49.62
2022-12-25T22:26:05.119Z,49.40
2022-12-25T22:28:32.285Z,49.61
2022-12-25T22:31:02.913Z,49.37
2022-12-25T22:33:30.079Z,49.88
2022-12-25T22:36:03.599Z,49.86
2022-12-25T22:38:31.862Z,49.64
2022-12-25T22:41:04.241Z,49.55
2022-12-25T22:43:58.070Z,49.44
2022-12-25T22:46:18.534Z,49.91
2022-12-25T22:48:45.823Z,50.01
2022-12-25T22:51:14.358Z,50.24
2022-12-25T22:53:41.560Z,49.58
2022-12-25T22:56:09.879Z,50.03
2022-12-25T22:58:37.060Z,49.88
2022-12-25T23:01:08.081Z,49.98
2022-12-25T23:03:35.401Z,50.07
2022-12-25T23:06:02.860Z,49.71
2022-12-25T23:08:31.621Z,49.77
2022-12-25T23:11:01.717Z,49.73
2022-12-25T23:13:28.961Z,49.93
2022-12-25T23:15:56.314Z,49.72
2022-12-25T23:18:23.567Z,49.66
2022-12-25T23:20:50.737Z,50.19
2022-12-25T23:23:18.355Z,50.11
2022-12-25T23:25:47.199Z,50.62
2022-12-25T23:28:14.402Z,50.47
2022-12-25T23:30:41.557Z,49.76
2022-12-25T23:33:08.715Z,50.21
2022-12-25T23:35:35.899Z,50.83
2022-12-25T23:38:03.200Z,50.67
2022-12-25T23:40:30.359Z,50.24
2022-12-25T23:42:59.058Z,50.21
2022-12-25T23:45:26.267Z,51.06
2022-12-25T23:47:53.657Z,50.12
2022-12-25T23:50:20.827Z,49.99
2022-12-25T23:52:47.987Z,50.53
2022-12-25T23:55:15.301Z,50.70
2022-12-25T23:57:42.527Z,50.30
